YPKG/KGI METAR and TAF weather

Enter ICAO airport designator
Station Type Date Time Source
YPKG METAR 2021/06/22 23:30 UTC NOAA

YPKG 222330Z AUTO 24010KT 9999 // OVC023 07/04 Q1020 RF00.0/000.0


Station Type Date Time Source
YPKG Decoded METAR 2021/06/22 23:30 UTC NOAA

Kalgoorlie Boulder Amo, Australia (YPKG) 30-47S 121-27E 370M
Jun 22, 2021 - 07:30 PM EDT / 2021.06.22 2330 UTC
Wind: from the WSW (240 degrees) at 12 MPH (10 KT):0
Visibility: greater than 7 mile(s):0
Sky conditions: overcast
Temperature: 44 F (7 C)
Dew Point: 39 F (4 C)
Relative Humidity: 81%
Pressure (altimeter): 30.12 in. Hg (1020 hPa)
ob: YPKG 222330Z AUTO 24010KT 9999 // OVC023 07/04 Q1020 RF00.0/000.0
cycle: 23

Station Type Date Time Source
YPKG TAF 2021/06/22 18:00 UTC NOAA

TAF YPKG 221643Z 2218/2318 26010KT 9999 SCT020 BKN030
FM221900 25010KT 9999 SCT015 BKN020
FM230300 23012KT 9999 SCT030 BKN040
FM231200 22006KT 9999 SCT030

Example: see airport list